sensor_id;sensor_type;location;lat;lon;timestamp;temperature;humidity
40676;DHT22;26359;48.750;9.314;2023-06-22T00:02:24;22.10;99.90
40676;DHT22;26359;48.750;9.314;2023-06-22T00:04:49;22.10;99.90
40676;DHT22;26359;48.750;9.314;2023-06-22T00:07:15;22.00;99.90
40676;DHT22;26359;48.750;9.314;2023-06-22T00:09:40;22.00;99.90
40676;DHT22;26359;48.750;9.314;2023-06-22T00:12:06;22.00;99.90
40676;DHT22;26359;48.750;9.314;2023-06-22T00:14:32;21.90;99.90
40676;DHT22;26359;48.750;9.314;2023-06-22T00:16:57;22.00;99.90
40676;DHT22;26359;48.750;9.314;2023-06-22T00:19:24;21.90;99.90
40676;DHT22;26359;48.750;9.314;2023-06-22T00:21:50;21.90;99.90
40676;DHT22;26359;48.750;9.314;2023-06-22T00:24:19;21.90;99.90
40676;DHT22;26359;48.750;9.314;2023-06-22T00:26:45;21.90;99.90
40676;DHT22;26359;48.750;9.314;2023-06-22T00:29:11;21.90;99.90
40676;DHT22;26359;48.750;9.314;2023-06-22T00:31:36;21.90;99.90
40676;DHT22;26359;48.750;9.314;2023-06-22T00:34:02;21.80;99.90
40676;DHT22;26359;48.750;9.314;2023-06-22T00:36:27;21.80;99.90
40676;DHT22;26359;48.750;9.314;2023-06-22T00:38:53;21.70;99.90
40676;DHT22;26359;48.750;9.314;2023-06-22T00:41:18;21.70;99.90
40676;DHT22;26359;48.750;9.314;2023-06-22T00:43:45;21.70;99.90
40676;DHT22;26359;48.750;9.314;2023-06-22T00:46:11;21.70;99.90
40676;DHT22;26359;48.750;9.314;2023-06-22T00:48:36;21.70;99.90
40676;DHT22;26359;48.750;9.314;2023-06-22T00:51:02;21.60;99.90
40676;DHT22;26359;48.750;9.314;2023-06-22T00:53:28;21.60;99.90
40676;DHT22;26359;48.750;9.314;2023-06-22T00:55:54;21.60;99.90
40676;DHT22;26359;48.750;9.314;2023-06-22T00:58:20;21.60;99.90
40676;DHT22;26359;48.750;9.314;2023-06-22T01:00:51;21.70;99.90
40676;DHT22;26359;48.750;9.314;2023-06-22T01:03:17;21.60;99.90
40676;DHT22;26359;48.750;9.314;2023-06-22T01:05:44;21.60;99.90
40676;DHT22;26359;48.750;9.314;2023-06-22T01:08:31;21.60;99.90
40676;DHT22;26359;48.750;9.314;2023-06-22T01:11:13;21.60;99.90
40676;DHT22;26359;48.750;9.314;2023-06-22T01:16:22;21.50;99.90
40676;DHT22;26359;48.750;9.314;2023-06-22T01:18:52;21.50;99.90
40676;DHT22;26359;48.750;9.314;2023-06-22T01:21:19;21.50;99.90
40676;DHT22;26359;48.750;9.314;2023-06-22T01:26:42;21.50;99.90
40676;DHT22;26359;48.750;9.314;2023-06-22T01:29:11;21.50;99.90
40676;DHT22;26359;48.750;9.314;2023-06-22T01:31:39;21.40;99.90
40676;DHT22;26359;48.750;9.314;2023-06-22T01:34:07;21.40;99.90
40676;DHT22;26359;48.750;9.314;2023-06-22T01:36:34;21.40;99.90
40676;DHT22;26359;48.750;9.314;2023-06-22T01:39:01;21.40;99.90
40676;DHT22;26359;48.750;9.314;2023-06-22T01:41:30;21.30;99.90
40676;DHT22;26359;48.750;9.314;2023-06-22T01:43:56;21.20;99.90
40676;DHT22;26359;48.750;9.314;2023-06-22T01:46:23;21.20;99.90
40676;DHT22;26359;48.750;9.314;2023-06-22T01:48:49;21.20;99.90
40676;DHT22;26359;48.750;9.314;2023-06-22T01:51:16;21.10;99.90
40676;DHT22;26359;48.750;9.314;2023-06-22T01:53:41;21.10;99.90
40676;DHT22;26359;48.750;9.314;2023-06-22T01:56:08;21.10;99.90
40676;DHT22;26359;48.750;9.314;2023-06-22T01:58:34;21.00;99.90
40676;DHT22;26359;48.750;9.314;2023-06-22T02:01:12;21.10;99.90
40676;DHT22;26359;48.750;9.314;2023-06-22T02:04:05;21.10;99.90
40676;DHT22;26359;48.750;9.314;2023-06-22T02:06:34;21.00;99.90
40676;DHT22;26359;48.750;9.314;2023-06-22T02:09:07;21.10;99.90
40676;DHT22;26359;48.750;9.314;2023-06-22T02:11:35;21.10;99.90
40676;DHT22;26359;48.750;9.314;2023-06-22T02:14:01;21.00;99.90
40676;DHT22;26359;48.750;9.314;2023-06-22T02:16:27;21.00;99.90
40676;DHT22;26359;48.750;9.314;2023-06-22T02:18:55;21.00;99.90
40676;DHT22;26359;48.750;9.314;2023-06-22T02:21:22;20.90;99.90
40676;DHT22;26359;48.750;9.314;2023-06-22T02:23:47;20.90;99.90
40676;DHT22;26359;48.750;9.314;2023-06-22T02:26:15;20.90;99.90
40676;DHT22;26359;48.750;9.314;2023-06-22T02:28:41;20.90;99.90
40676;DHT22;26359;48.750;9.314;2023-06-22T02:31:06;20.90;99.90
40676;DHT22;26359;48.750;9.314;2023-06-22T02:33:32;20.80;99.90
40676;DHT22;26359;48.750;9.314;2023-06-22T02:35:57;20.80;99.90
40676;DHT22;26359;48.750;9.314;2023-06-22T02:38:23;20.70;99.90
40676;DHT22;26359;48.750;9.314;2023-06-22T02:40:49;20.70;99.90
40676;DHT22;26359;48.750;9.314;2023-06-22T02:43:15;20.70;99.90
40676;DHT22;26359;48.750;9.314;2023-06-22T02:45:40;20.70;99.90
40676;DHT22;26359;48.750;9.314;2023-06-22T02:48:06;20.60;99.90
40676;DHT22;26359;48.750;9.314;2023-06-22T02:50:32;20.70;99.90
40676;DHT22;26359;48.750;9.314;2023-06-22T02:52:57;20.60;99.90
40676;DHT22;26359;48.750;9.314;2023-06-22T02:55:23;20.60;99.90
40676;DHT22;26359;48.750;9.314;2023-06-22T02:57:49;20.50;99.90
40676;DHT22;26359;48.750;9.314;2023-06-22T03:00:18;20.60;99.90
40676;DHT22;26359;48.750;9.314;2023-06-22T03:02:45;20.50;99.90
40676;DHT22;26359;48.750;9.314;2023-06-22T03:05:11;20.50;99.90
40676;DHT22;26359;48.750;9.314;2023-06-22T03:07:39;20.50;99.90
40676;DHT22;26359;48.750;9.314;2023-06-22T03:10:06;20.50;99.90
40676;DHT22;26359;48.750;9.314;2023-06-22T03:12:32;20.50;99.90
40676;DHT22;26359;48.750;9.314;2023-06-22T03:14:57;20.50;99.90
40676;DHT22;26359;48.750;9.314;2023-06-22T03:17:23;20.50;99.90
40676;DHT22;26359;48.750;9.314;2023-06-22T03:19:49;20.50;99.90
40676;DHT22;26359;48.750;9.314;2023-06-22T03:22:14;20.50;99.90
40676;DHT22;26359;48.750;9.314;2023-06-22T03:24:40;20.60;99.90
40676;DHT22;26359;48.750;9.314;2023-06-22T03:27:06;20.50;99.90
40676;DHT22;26359;48.750;9.314;2023-06-22T03:29:31;20.50;99.90
40676;DHT22;26359;48.750;9.314;2023-06-22T03:31:57;20.50;99.90
40676;DHT22;26359;48.750;9.314;2023-06-22T03:34:22;20.50;99.90
40676;DHT22;26359;48.750;9.314;2023-06-22T03:36:48;20.50;99.90
40676;DHT22;26359;48.750;9.314;2023-06-22T03:39:13;20.50;99.90
40676;DHT22;26359;48.750;9.314;2023-06-22T03:41:39;20.50;99.90
40676;DHT22;26359;48.750;9.314;2023-06-22T03:44:04;20.50;99.90
40676;DHT22;26359;48.750;9.314;2023-06-22T03:46:30;20.50;99.90
40676;DHT22;26359;48.750;9.314;2023-06-22T03:48:55;20.50;99.90
40676;DHT22;26359;48.750;9.314;2023-06-22T03:51:21;20.60;99.90
40676;DHT22;26359;48.750;9.314;2023-06-22T03:53:46;20.60;99.90
40676;DHT22;26359;48.750;9.314;2023-06-22T03:56:13;20.60;99.90
40676;DHT22;26359;48.750;9.314;2023-06-22T03:58:45;20.60;99.90
40676;DHT22;26359;48.750;9.314;2023-06-22T04:01:11;20.60;99.90
40676;DHT22;26359;48.750;9.314;2023-06-22T04:03:37;20.60;99.90
40676;DHT22;26359;48.750;9.314;2023-06-22T04:06:03;20.60;99.90
40676;DHT22;26359;48.750;9.314;2023-06-22T04:08:29;20.60;99.90
40676;DHT22;26359;48.750;9.314;2023-06-22T04:10:54;20.60;99.90
40676;DHT22;26359;48.750;9.314;2023-06-22T04:13:20;20.60;99.90
40676;DHT22;26359;48.750;9.314;2023-06-22T04:15:45;20.60;99.90
40676;DHT22;26359;48.750;9.314;2023-06-22T04:18:11;20.60;99.90
40676;DHT22;26359;48.750;9.314;2023-06-22T04:20:36;20.60;99.90
40676;DHT22;26359;48.750;9.314;2023-06-22T04:23:02;20.60;99.90
40676;DHT22;26359;48.750;9.314;2023-06-22T04:25:27;20.60;99.90
40676;DHT22;26359;48.750;9.314;2023-06-22T04:27:53;20.60;99.90
40676;DHT22;26359;48.750;9.314;2023-06-22T04:30:19;20.60;99.90
40676;DHT22;26359;48.750;9.314;2023-06-22T04:32:44;20.70;99.90
40676;DHT22;26359;48.750;9.314;2023-06-22T04:35:11;20.70;99.90
40676;DHT22;26359;48.750;9.314;2023-06-22T04:37:36;20.70;99.90
40676;DHT22;26359;48.750;9.314;2023-06-22T04:40:02;20.70;99.90
40676;DHT22;26359;48.750;9.314;2023-06-22T04:42:30;20.70;99.90
40676;DHT22;26359;48.750;9.314;2023-06-22T04:44:57;20.80;99.90
40676;DHT22;26359;48.750;9.314;2023-06-22T04:47:22;20.80;99.90
40676;DHT22;26359;48.750;9.314;2023-06-22T04:49:48;20.80;99.90
40676;DHT22;26359;48.750;9.314;2023-06-22T04:52:14;20.80;99.90
40676;DHT22;26359;48.750;9.314;2023-06-22T04:54:43;20.90;99.90
40676;DHT22;26359;48.750;9.314;2023-06-22T04:57:13;21.00;99.90
40676;DHT22;26359;48.750;9.314;2023-06-22T04:59:39;21.10;99.90
40676;DHT22;26359;48.750;9.314;2023-06-22T05:02:07;21.10;99.90
40676;DHT22;26359;48.750;9.314;2023-06-22T05:04:33;21.20;99.90
40676;DHT22;26359;48.750;9.314;2023-06-22T05:07:01;21.30;99.90
40676;DHT22;26359;48.750;9.314;2023-06-22T05:09:27;21.30;99.90
40676;DHT22;26359;48.750;9.314;2023-06-22T05:11:52;21.20;99.90
40676;DHT22;26359;48.750;9.314;2023-06-22T05:14:19;21.20;99.90
40676;DHT22;26359;48.750;9.314;2023-06-22T05:16:45;21.30;99.90
40676;DHT22;26359;48.750;9.314;2023-06-22T05:19:11;21.30;99.90
40676;DHT22;26359;48.750;9.314;2023-06-22T05:21:37;21.30;99.90
40676;DHT22;26359;48.750;9.314;2023-06-22T05:24:03;21.30;99.90
40676;DHT22;26359;48.750;9.314;2023-06-22T05:26:30;21.30;99.90
40676;DHT22;26359;48.750;9.314;2023-06-22T05:28:56;21.40;99.90
40676;DHT22;26359;48.750;9.314;2023-06-22T05:31:22;21.30;99.90
40676;DHT22;26359;48.750;9.314;2023-06-22T05:33:48;21.40;99.90
40676;DHT22;26359;48.750;9.314;2023-06-22T05:36:15;21.40;99.90
40676;DHT22;26359;48.750;9.314;2023-06-22T05:38:41;21.40;99.90
40676;DHT22;26359;48.750;9.314;2023-06-22T05:41:07;21.40;99.90
40676;DHT22;26359;48.750;9.314;2023-06-22T05:43:33;21.40;99.90
40676;DHT22;26359;48.750;9.314;2023-06-22T05:46:00;21.50;99.90
40676;DHT22;26359;48.750;9.314;2023-06-22T05:48:26;21.50;99.90
40676;DHT22;26359;48.750;9.314;2023-06-22T05:50:51;21.50;99.90
40676;DHT22;26359;48.750;9.314;2023-06-22T05:53:17;21.70;99.90
40676;DHT22;26359;48.750;9.314;2023-06-22T05:55:42;21.70;99.90
40676;DHT22;26359;48.750;9.314;2023-06-22T05:58:08;21.80;99.90
40676;DHT22;26359;48.750;9.314;2023-06-22T06:00:35;22.10;99.90
40676;DHT22;26359;48.750;9.314;2023-06-22T06:03:00;22.10;99.90
40676;DHT22;26359;48.750;9.314;2023-06-22T06:05:32;22.10;99.90
40676;DHT22;26359;48.750;9.314;2023-06-22T06:08:00;22.00;99.90
40676;DHT22;26359;48.750;9.314;2023-06-22T06:10:26;22.10;99.90
40676;DHT22;26359;48.750;9.314;2023-06-22T06:12:52;22.10;99.90
40676;DHT22;26359;48.750;9.314;2023-06-22T06:15:18;22.10;99.90
40676;DHT22;26359;48.750;9.314;2023-06-22T06:17:48;22.20;99.90
40676;DHT22;26359;48.750;9.314;2023-06-22T06:20:14;22.30;99.90
40676;DHT22;26359;48.750;9.314;2023-06-22T06:22:39;22.30;99.90
40676;DHT22;26359;48.750;9.314;2023-06-22T06:25:05;22.30;99.90
40676;DHT22;26359;48.750;9.314;2023-06-22T06:27:31;22.30;99.90
40676;DHT22;26359;48.750;9.314;2023-06-22T06:29:56;22.40;99.90
40676;DHT22;26359;48.750;9.314;2023-06-22T06:32:22;22.40;99.90
40676;DHT22;26359;48.750;9.314;2023-06-22T06:34:47;22.30;99.90
40676;DHT22;26359;48.750;9.314;2023-06-22T06:37:13;22.40;99.90
40676;DHT22;26359;48.750;9.314;2023-06-22T06:39:38;22.50;99.90
40676;DHT22;26359;48.750;9.314;2023-06-22T06:42:05;22.60;99.90
40676;DHT22;26359;48.750;9.314;2023-06-22T06:44:30;22.70;99.90
40676;DHT22;26359;48.750;9.314;2023-06-22T06:46:56;22.80;99.90
40676;DHT22;26359;48.750;9.314;2023-06-22T06:49:21;22.80;99.90
40676;DHT22;26359;48.750;9.314;2023-06-22T06:51:47;23.00;99.90
40676;DHT22;26359;48.750;9.314;2023-06-22T06:54:12;23.00;99.90
40676;DHT22;26359;48.750;9.314;2023-06-22T06:56:38;23.10;99.90
40676;DHT22;26359;48.750;9.314;2023-06-22T06:59:03;23.10;99.90
40676;DHT22;26359;48.750;9.314;2023-06-22T07:01:29;23.20;99.90
40676;DHT22;26359;48.750;9.314;2023-06-22T07:03:59;23.30;99.90
40676;DHT22;26359;48.750;9.314;2023-06-22T07:06:24;23.30;99.90
40676;DHT22;26359;48.750;9.314;2023-06-22T07:08:55;23.30;99.90
40676;DHT22;26359;48.750;9.314;2023-06-22T07:11:20;23.40;99.90
40676;DHT22;26359;48.750;9.314;2023-06-22T07:13:46;23.50;99.90
40676;DHT22;26359;48.750;9.314;2023-06-22T07:16:11;23.70;99.90
40676;DHT22;26359;48.750;9.314;2023-06-22T07:18:39;23.70;99.90
40676;DHT22;26359;48.750;9.314;2023-06-22T07:21:04;23.80;99.90
40676;DHT22;26359;48.750;9.314;2023-06-22T07:23:31;23.80;99.90
40676;DHT22;26359;48.750;9.314;2023-06-22T07:25:57;23.90;99.90
40676;DHT22;26359;48.750;9.314;2023-06-22T07:28:22;24.10;99.90
40676;DHT22;26359;48.750;9.314;2023-06-22T07:30:48;24.20;99.90
40676;DHT22;26359;48.750;9.314;2023-06-22T07:33:13;24.30;99.90
40676;DHT22;26359;48.750;9.314;2023-06-22T07:35:39;24.40;99.90
40676;DHT22;26359;48.750;9.314;2023-06-22T07:38:04;24.40;99.90
40676;DHT22;26359;48.750;9.314;2023-06-22T07:40:30;24.50;99.90
40676;DHT22;26359;48.750;9.314;2023-06-22T07:42:56;24.60;99.90
40676;DHT22;26359;48.750;9.314;2023-06-22T07:45:21;24.70;99.90
40676;DHT22;26359;48.750;9.314;2023-06-22T07:47:47;24.80;99.90
40676;DHT22;26359;48.750;9.314;2023-06-22T07:50:13;24.90;99.90
40676;DHT22;26359;48.750;9.314;2023-06-22T07:52:38;25.00;99.90
40676;DHT22;26359;48.750;9.314;2023-06-22T07:55:04;25.10;99.90
40676;DHT22;26359;48.750;9.314;2023-06-22T07:57:30;25.30;99.90
40676;DHT22;26359;48.750;9.314;2023-06-22T08:00:03;25.30;99.90
40676;DHT22;26359;48.750;9.314;2023-06-22T08:02:31;25.40;99.90
40676;DHT22;26359;48.750;9.314;2023-06-22T08:04:57;25.40;99.90
40676;DHT22;26359;48.750;9.314;2023-06-22T08:07:22;25.40;99.90
40676;DHT22;26359;48.750;9.314;2023-06-22T08:09:48;25.60;99.90
40676;DHT22;26359;48.750;9.314;2023-06-22T08:12:15;25.60;99.90
40676;DHT22;26359;48.750;9.314;2023-06-22T08:14:42;25.70;99.90
40676;DHT22;26359;48.750;9.314;2023-06-22T08:17:08;25.80;99.90
40676;DHT22;26359;48.750;9.314;2023-06-22T08:19:33;25.90;99.90
40676;DHT22;26359;48.750;9.314;2023-06-22T08:21:59;26.00;99.90
40676;DHT22;26359;48.750;9.314;2023-06-22T08:24:24;26.20;99.90
40676;DHT22;26359;48.750;9.314;2023-06-22T08:26:51;26.30;99.90
40676;DHT22;26359;48.750;9.314;2023-06-22T08:29:20;26.40;99.90
40676;DHT22;26359;48.750;9.314;2023-06-22T08:31:45;26.40;99.90
40676;DHT22;26359;48.750;9.314;2023-06-22T08:34:11;26.40;99.90
40676;DHT22;26359;48.750;9.314;2023-06-22T08:36:36;26.40;99.90
40676;DHT22;26359;48.750;9.314;2023-06-22T08:39:06;26.50;99.90
40676;DHT22;26359;48.750;9.314;2023-06-22T08:41:32;26.60;99.90
40676;DHT22;26359;48.750;9.314;2023-06-22T08:43:57;26.80;99.90
40676;DHT22;26359;48.750;9.314;2023-06-22T08:46:23;26.90;99.90
40676;DHT22;26359;48.750;9.314;2023-06-22T08:48:58;27.00;99.90
40676;DHT22;26359;48.750;9.314;2023-06-22T08:51:24;27.10;99.90
40676;DHT22;26359;48.750;9.314;2023-06-22T08:53:50;27.10;99.90
40676;DHT22;26359;48.750;9.314;2023-06-22T08:56:15;27.20;99.90
40676;DHT22;26359;48.750;9.314;2023-06-22T08:58:41;27.20;99.90
40676;DHT22;26359;48.750;9.314;2023-06-22T09:01:06;27.10;99.90
40676;DHT22;26359;48.750;9.314;2023-06-22T09:03:32;27.20;99.90
40676;DHT22;26359;48.750;9.314;2023-06-22T09:05:58;27.20;99.90
40676;DHT22;26359;48.750;9.314;2023-06-22T09:08:24;27.10;99.90
40676;DHT22;26359;48.750;9.314;2023-06-22T09:10:49;27.30;99.90
40676;DHT22;26359;48.750;9.314;2023-06-22T09:13:15;27.30;99.90
40676;DHT22;26359;48.750;9.314;2023-06-22T09:15:40;27.30;99.90
40676;DHT22;26359;48.750;9.314;2023-06-22T09:18:06;27.30;99.90
40676;DHT22;26359;48.750;9.314;2023-06-22T09:20:31;27.60;99.90
40676;DHT22;26359;48.750;9.314;2023-06-22T09:22:57;27.80;99.90
40676;DHT22;26359;48.750;9.314;2023-06-22T09:25:23;28.00;99.90
40676;DHT22;26359;48.750;9.314;2023-06-22T09:27:48;27.90;99.90
40676;DHT22;26359;48.750;9.314;2023-06-22T09:30:14;27.90;99.90
40676;DHT22;26359;48.750;9.314;2023-06-22T09:32:39;28.00;99.90
40676;DHT22;26359;48.750;9.314;2023-06-22T09:35:06;28.10;99.90
40676;DHT22;26359;48.750;9.314;2023-06-22T09:37:32;28.20;99.90
40676;DHT22;26359;48.750;9.314;2023-06-22T09:39:57;28.30;99.90
40676;DHT22;26359;48.750;9.314;2023-06-22T09:42:23;28.30;99.90
40676;DHT22;26359;48.750;9.314;2023-06-22T09:44:48;28.30;99.90
40676;DHT22;26359;48.750;9.314;2023-06-22T09:47:14;28.30;99.90
40676;DHT22;26359;48.750;9.314;2023-06-22T09:49:39;28.40;99.90
40676;DHT22;26359;48.750;9.314;2023-06-22T09:52:05;28.50;99.90
40676;DHT22;26359;48.750;9.314;2023-06-22T09:54:31;28.50;99.90
40676;DHT22;26359;48.750;9.314;2023-06-22T09:56:56;28.60;99.90
40676;DHT22;26359;48.750;9.314;2023-06-22T09:59:22;28.60;99.90
40676;DHT22;26359;48.750;9.314;2023-06-22T10:01:47;28.70;99.90
40676;DHT22;26359;48.750;9.314;2023-06-22T10:04:13;28.80;99.90
40676;DHT22;26359;48.750;9.314;2023-06-22T10:06:38;28.90;99.90
40676;DHT22;26359;48.750;9.314;2023-06-22T10:09:06;29.20;99.90
40676;DHT22;26359;48.750;9.314;2023-06-22T10:11:32;29.30;99.90
40676;DHT22;26359;48.750;9.314;2023-06-22T10:14:00;29.20;99.90
40676;DHT22;26359;48.750;9.314;2023-06-22T10:16:31;29.20;99.90
40676;DHT22;26359;48.750;9.314;2023-06-22T10:18:57;29.00;99.90
40676;DHT22;26359;48.750;9.314;2023-06-22T10:21:22;28.90;99.90
40676;DHT22;26359;48.750;9.314;2023-06-22T10:23:48;28.80;99.90
40676;DHT22;26359;48.750;9.314;2023-06-22T10:26:13;28.80;99.90
40676;DHT22;26359;48.750;9.314;2023-06-22T10:28:39;28.90;99.90
40676;DHT22;26359;48.750;9.314;2023-06-22T10:31:04;29.00;99.90
40676;DHT22;26359;48.750;9.314;2023-06-22T10:33:30;29.10;99.90
40676;DHT22;26359;48.750;9.314;2023-06-22T10:35:55;29.20;99.90
40676;DHT22;26359;48.750;9.314;2023-06-22T10:38:21;29.20;99.90
40676;DHT22;26359;48.750;9.314;2023-06-22T10:40:46;29.30;99.90
40676;DHT22;26359;48.750;9.314;2023-06-22T10:43:12;29.30;99.90
40676;DHT22;26359;48.750;9.314;2023-06-22T10:45:37;29.20;99.90
40676;DHT22;26359;48.750;9.314;2023-06-22T10:48:03;29.30;99.90
40676;DHT22;26359;48.750;9.314;2023-06-22T10:50:29;29.40;99.90
40676;DHT22;26359;48.750;9.314;2023-06-22T10:52:54;29.40;99.90
40676;DHT22;26359;48.750;9.314;2023-06-22T10:55:20;29.50;99.90
40676;DHT22;26359;48.750;9.314;2023-06-22T10:57:45;29.50;99.90
40676;DHT22;26359;48.750;9.314;2023-06-22T11:00:13;29.50;99.90
40676;DHT22;26359;48.750;9.314;2023-06-22T11:02:39;29.50;99.90
40676;DHT22;26359;48.750;9.314;2023-06-22T11:05:04;29.50;99.90
40676;DHT22;26359;48.750;9.314;2023-06-22T11:07:30;29.50;99.90
40676;DHT22;26359;48.750;9.314;2023-06-22T11:09:56;29.50;99.90
40676;DHT22;26359;48.750;9.314;2023-06-22T11:12:22;29.40;99.90
40676;DHT22;26359;48.750;9.314;2023-06-22T11:14:47;29.50;99.90
40676;DHT22;26359;48.750;9.314;2023-06-22T11:17:15;29.60;99.90
40676;DHT22;26359;48.750;9.314;2023-06-22T11:19:41;29.60;99.90
40676;DHT22;26359;48.750;9.314;2023-06-22T11:22:06;29.70;99.90
40676;DHT22;26359;48.750;9.314;2023-06-22T11:24:32;29.80;99.90
40676;DHT22;26359;48.750;9.314;2023-06-22T11:26:57;29.80;99.90
40676;DHT22;26359;48.750;9.314;2023-06-22T11:29:23;29.90;99.90
40676;DHT22;26359;48.750;9.314;2023-06-22T11:31:49;29.90;99.90
40676;DHT22;26359;48.750;9.314;2023-06-22T11:34:14;30.00;99.90
40676;DHT22;26359;48.750;9.314;2023-06-22T11:36:40;30.00;99.90
40676;DHT22;26359;48.750;9.314;2023-06-22T11:39:05;30.00;99.90
40676;DHT22;26359;48.750;9.314;2023-06-22T11:41:31;30.10;99.90
40676;DHT22;26359;48.750;9.314;2023-06-22T11:43:56;30.10;99.90
40676;DHT22;26359;48.750;9.314;2023-06-22T11:46:22;30.10;99.90
40676;DHT22;26359;48.750;9.314;2023-06-22T11:48:47;30.20;99.90
40676;DHT22;26359;48.750;9.314;2023-06-22T11:51:13;30.20;99.90
40676;DHT22;26359;48.750;9.314;2023-06-22T11:53:38;30.20;99.90
40676;DHT22;26359;48.750;9.314;2023-06-22T11:56:04;30.10;99.90
40676;DHT22;26359;48.750;9.314;2023-06-22T11:58:29;30.20;99.90
40676;DHT22;26359;48.750;9.314;2023-06-22T12:00:55;30.10;99.90
40676;DHT22;26359;48.750;9.314;2023-06-22T12:03:21;30.10;99.90
40676;DHT22;26359;48.750;9.314;2023-06-22T12:05:47;30.10;99.90
40676;DHT22;26359;48.750;9.314;2023-06-22T12:08:12;30.20;99.90
40676;DHT22;26359;48.750;9.314;2023-06-22T12:10:40;30.40;99.90
40676;DHT22;26359;48.750;9.314;2023-06-22T12:13:06;30.50;99.90
40676;DHT22;26359;48.750;9.314;2023-06-22T12:15:31;30.60;99.90
40676;DHT22;26359;48.750;9.314;2023-06-22T12:17:57;30.60;99.90
40676;DHT22;26359;48.750;9.314;2023-06-22T12:20:22;30.60;99.90
40676;DHT22;26359;48.750;9.314;2023-06-22T12:22:48;30.60;99.90
40676;DHT22;26359;48.750;9.314;2023-06-22T12:25:16;30.50;99.90
40676;DHT22;26359;48.750;9.314;2023-06-22T12:27:42;30.40;99.90
40676;DHT22;26359;48.750;9.314;2023-06-22T12:30:08;30.50;99.90
40676;DHT22;26359;48.750;9.314;2023-06-22T12:32:34;30.50;99.90
40676;DHT22;26359;48.750;9.314;2023-06-22T12:35:00;30.40;99.90
40676;DHT22;26359;48.750;9.314;2023-06-22T12:37:25;30.40;99.90
40676;DHT22;26359;48.750;9.314;2023-06-22T12:39:51;30.30;99.90
40676;DHT22;26359;48.750;9.314;2023-06-22T12:42:16;30.30;99.90
40676;DHT22;26359;48.750;9.314;2023-06-22T12:44:42;30.10;99.90
40676;DHT22;26359;48.750;9.314;2023-06-22T12:47:08;30.10;99.90
40676;DHT22;26359;48.750;9.314;2023-06-22T12:49:35;30.00;99.90
40676;DHT22;26359;48.750;9.314;2023-06-22T12:52:01;29.90;99.90
40676;DHT22;26359;48.750;9.314;2023-06-22T12:54:26;29.90;99.90
40676;DHT22;26359;48.750;9.314;2023-06-22T12:56:53;29.90;99.90
40676;DHT22;26359;48.750;9.314;2023-06-22T12:59:19;29.80;99.90
40676;DHT22;26359;48.750;9.314;2023-06-22T13:01:44;29.90;99.90
40676;DHT22;26359;48.750;9.314;2023-06-22T13:04:11;29.90;99.90
40676;DHT22;26359;48.750;9.314;2023-06-22T13:06:42;29.80;99.90
40676;DHT22;26359;48.750;9.314;2023-06-22T13:09:09;29.90;99.90
40676;DHT22;26359;48.750;9.314;2023-06-22T13:11:35;29.70;99.90
40676;DHT22;26359;48.750;9.314;2023-06-22T13:14:00;29.80;99.90
40676;DHT22;26359;48.750;9.314;2023-06-22T13:16:26;29.70;99.90
40676;DHT22;26359;48.750;9.314;2023-06-22T13:18:51;29.70;99.90
40676;DHT22;26359;48.750;9.314;2023-06-22T13:21:17;29.70;99.90
40676;DHT22;26359;48.750;9.314;2023-06-22T13:23:43;29.60;99.90
40676;DHT22;26359;48.750;9.314;2023-06-22T13:26:08;29.60;99.90
40676;DHT22;26359;48.750;9.314;2023-06-22T13:28:34;29.70;99.90
40676;DHT22;26359;48.750;9.314;2023-06-22T13:30:59;29.70;99.90
40676;DHT22;26359;48.750;9.314;2023-06-22T13:33:25;29.90;99.90
40676;DHT22;26359;48.750;9.314;2023-06-22T13:35:50;29.90;99.90
40676;DHT22;26359;48.750;9.314;2023-06-22T13:38:16;30.00;99.90
40676;DHT22;26359;48.750;9.314;2023-06-22T13:40:42;29.90;99.90
40676;DHT22;26359;48.750;9.314;2023-06-22T13:43:08;29.90;99.90
40676;DHT22;26359;48.750;9.314;2023-06-22T13:45:33;29.90;99.90
40676;DHT22;26359;48.750;9.314;2023-06-22T13:47:59;29.80;99.90
40676;DHT22;26359;48.750;9.314;2023-06-22T13:50:24;29.90;99.90
40676;DHT22;26359;48.750;9.314;2023-06-22T13:52:50;29.90;99.90
40676;DHT22;26359;48.750;9.314;2023-06-22T13:55:15;29.90;99.90
40676;DHT22;26359;48.750;9.314;2023-06-22T13:57:43;29.90;99.90
40676;DHT22;26359;48.750;9.314;2023-06-22T14:00:09;30.10;99.90
40676;DHT22;26359;48.750;9.314;2023-06-22T14:02:34;30.40;99.90
40676;DHT22;26359;48.750;9.314;2023-06-22T14:05:00;30.50;99.90
40676;DHT22;26359;48.750;9.314;2023-06-22T14:07:26;30.70;99.90
40676;DHT22;26359;48.750;9.314;2023-06-22T14:09:51;30.80;99.90
40676;DHT22;26359;48.750;9.314;2023-06-22T14:12:17;31.10;99.90
40676;DHT22;26359;48.750;9.314;2023-06-22T14:14:45;31.20;99.90
40676;DHT22;26359;48.750;9.314;2023-06-22T14:17:11;31.40;99.90
40676;DHT22;26359;48.750;9.314;2023-06-22T14:19:36;31.50;99.90
40676;DHT22;26359;48.750;9.314;2023-06-22T14:22:02;31.40;99.90
40676;DHT22;26359;48.750;9.314;2023-06-22T14:24:28;31.50;99.90
40676;DHT22;26359;48.750;9.314;2023-06-22T14:26:54;31.60;99.90
40676;DHT22;26359;48.750;9.314;2023-06-22T14:29:21;31.50;99.90
40676;DHT22;26359;48.750;9.314;2023-06-22T14:31:47;31.50;99.90
40676;DHT22;26359;48.750;9.314;2023-06-22T14:34:13;31.40;99.90
40676;DHT22;26359;48.750;9.314;2023-06-22T14:36:39;31.50;99.90
40676;DHT22;26359;48.750;9.314;2023-06-22T14:39:04;31.50;99.90
40676;DHT22;26359;48.750;9.314;2023-06-22T14:41:30;31.60;99.90
40676;DHT22;26359;48.750;9.314;2023-06-22T14:43:56;32.00;99.90
40676;DHT22;26359;48.750;9.314;2023-06-22T14:46:21;32.60;99.90
40676;DHT22;26359;48.750;9.314;2023-06-22T14:48:47;33.00;99.90
40676;DHT22;26359;48.750;9.314;2023-06-22T14:51:13;33.20;99.90
40676;DHT22;26359;48.750;9.314;2023-06-22T14:53:39;33.50;99.90
40676;DHT22;26359;48.750;9.314;2023-06-22T14:56:05;34.10;98.80
40676;DHT22;26359;48.750;9.314;2023-06-22T14:58:31;34.80;96.10
40676;DHT22;26359;48.750;9.314;2023-06-22T15:01:01;35.00;95.30
40676;DHT22;26359;48.750;9.314;2023-06-22T15:03:27;35.20;93.20
40676;DHT22;26359;48.750;9.314;2023-06-22T15:05:54;35.40;92.30
40676;DHT22;26359;48.750;9.314;2023-06-22T15:08:20;35.60;91.40
40676;DHT22;26359;48.750;9.314;2023-06-22T15:10:46;35.40;91.40
40676;DHT22;26359;48.750;9.314;2023-06-22T15:13:12;35.20;89.30
40676;DHT22;26359;48.750;9.314;2023-06-22T15:15:37;34.60;87.10
40676;DHT22;26359;48.750;9.314;2023-06-22T15:18:03;34.10;87.80
40676;DHT22;26359;48.750;9.314;2023-06-22T15:20:29;33.90;87.50
40676;DHT22;26359;48.750;9.314;2023-06-22T15:22:56;33.90;85.60
40676;DHT22;26359;48.750;9.314;2023-06-22T15:25:22;33.90;85.50
40676;DHT22;26359;48.750;9.314;2023-06-22T15:27:47;33.80;86.90
40676;DHT22;26359;48.750;9.314;2023-06-22T15:30:13;33.60;85.70